Time;durP1;ratioP1;P1;durP2;ratioP2;P2;SDS_P1;SDS_P2;PMS_P1;PMS_P2;Temp;Humidity;BMP_temperature;BMP_pressure;BME280_temperature;BME280_humidity;BME280_pressure;Samples;Min_cycle;Max_cycle;Signal;HPM_P1;HPM_P2
2021/06/13 00:01:37;;;;;;;5.6;3.1;;;;;;;;;;;;;
2021/06/13 00:04:02;;;;;;;2.9;2.4;;;;;;;;;;;;;
2021/06/13 00:06:28;;;;;;;5.2;2.5;;;;;;;;;;;;;
2021/06/13 00:08:54;;;;;;;4.5;2.9;;;;;;;;;;;;;
2021/06/13 00:11:21;;;;;;;4.2;2.9;;;;;;;;;;;;;
2021/06/13 00:13:45;;;;;;;3.7;2.8;;;;;;;;;;;;;
2021/06/13 00:16:11;;;;;;;3.9;3.1;;;;;;;;;;;;;
2021/06/13 00:18:36;;;;;;;4.4;2.8;;;;;;;;;;;;;
2021/06/13 00:21:02;;;;;;;3.1;2.7;;;;;;;;;;;;;
2021/06/13 00:23:27;;;;;;;3.4;3.1;;;;;;;;;;;;;
2021/06/13 00:25:53;;;;;;;3.2;2.9;;;;;;;;;;;;;
2021/06/13 00:28:18;;;;;;;5.5;3.4;;;;;;;;;;;;;
2021/06/13 00:30:44;;;;;;;4.5;3.5;;;;;;;;;;;;;
2021/06/13 00:33:09;;;;;;;3.8;3.2;;;;;;;;;;;;;
2021/06/13 00:35:35;;;;;;;3.7;2.9;;;;;;;;;;;;;
2021/06/13 00:38:01;;;;;;;3;2.6;;;;;;;;;;;;;
2021/06/13 00:40:26;;;;;;;4;3;;;;;;;;;;;;;
2021/06/13 00:42:51;;;;;;;3.7;3.3;;;;;;;;;;;;;
2021/06/13 00:45:18;;;;;;;4.5;3.3;;;;;;;;;;;;;
2021/06/13 00:47:43;;;;;;;4.8;3.5;;;;;;;;;;;;;
2021/06/13 00:50:09;;;;;;;4.7;3.2;;;;;;;;;;;;;
2021/06/13 00:52:34;;;;;;;3.5;3.2;;;;;;;;;;;;;
2021/06/13 00:54:59;;;;;;;4.2;2.9;;;;;;;;;;;;;
2021/06/13 00:57:25;;;;;;;3.8;3.5;;;;;;;;;;;;;
2021/06/13 00:59:50;;;;;;;4.1;3.6;;;;;;;;;;;;;
2021/06/13 01:02:15;;;;;;;3.7;3.3;;;;;;;;;;;;;
2021/06/13 01:04:40;;;;;;;3.7;3.3;;;;;;;;;;;;;
2021/06/13 01:07:05;;;;;;;3.9;3.5;;;;;;;;;;;;;
2021/06/13 01:09:30;;;;;;;4.2;3.5;;;;;;;;;;;;;
2021/06/13 01:11:55;;;;;;;4.5;3.6;;;;;;;;;;;;;
2021/06/13 01:14:22;;;;;;;4.3;3.7;;;;;;;;;;;;;
2021/06/13 01:16:47;;;;;;;3.7;3.3;;;;;;;;;;;;;
2021/06/13 01:19:12;;;;;;;4.9;3.5;;;;;;;;;;;;;
2021/06/13 01:21:37;;;;;;;3.7;3.3;;;;;;;;;;;;;
2021/06/13 01:24:02;;;;;;;3.8;3.5;;;;;;;;;;;;;
2021/06/13 01:26:27;;;;;;;5.9;4;;;;;;;;;;;;;
2021/06/13 01:28:53;;;;;;;4.5;4;;;;;;;;;;;;;
2021/06/13 01:31:18;;;;;;;4.7;3.5;;;;;;;;;;;;;
2021/06/13 01:33:43;;;;;;;5.7;3.6;;;;;;;;;;;;;
2021/06/13 01:36:08;;;;;;;4.7;3.4;;;;;;;;;;;;;
2021/06/13 01:38:33;;;;;;;5.1;3.8;;;;;;;;;;;;;
2021/06/13 01:40:58;;;;;;;4.8;4.1;;;;;;;;;;;;;
2021/06/13 01:43:23;;;;;;;4.9;4.1;;;;;;;;;;;;;
2021/06/13 01:45:49;;;;;;;4.3;3.9;;;;;;;;;;;;;
2021/06/13 01:48:15;;;;;;;5.7;4.3;;;;;;;;;;;;;
2021/06/13 01:50:40;;;;;;;5.2;4.1;;;;;;;;;;;;;
2021/06/13 01:53:06;;;;;;;4.5;4.1;;;;;;;;;;;;;
2021/06/13 01:55:31;;;;;;;5.9;4.3;;;;;;;;;;;;;
2021/06/13 01:57:58;;;;;;;5.8;4.1;;;;;;;;;;;;;
2021/06/13 02:00:23;;;;;;;6.8;4.5;;;;;;;;;;;;;
2021/06/13 02:02:50;;;;;;;6.1;4.4;;;;;;;;;;;;;
2021/06/13 02:05:15;;;;;;;5.7;4.8;;;;;;;;;;;;;
2021/06/13 02:07:40;;;;;;;4.8;4.3;;;;;;;;;;;;;
2021/06/13 02:10:05;;;;;;;5.6;4.2;;;;;;;;;;;;;
2021/06/13 02:12:32;;;;;;;5.5;4.4;;;;;;;;;;;;;
2021/06/13 02:14:57;;;;;;;5.6;4.3;;;;;;;;;;;;;
2021/06/13 02:17:23;;;;;;;5.8;4.5;;;;;;;;;;;;;
2021/06/13 02:19:48;;;;;;;5.6;4.6;;;;;;;;;;;;;
2021/06/13 02:22:14;;;;;;;6;4.7;;;;;;;;;;;;;
2021/06/13 02:24:38;;;;;;;7.6;4.7;;;;;;;;;;;;;
2021/06/13 02:27:03;;;;;;;5.2;4.5;;;;;;;;;;;;;
2021/06/13 02:29:29;;;;;;;6.2;4.2;;;;;;;;;;;;;
2021/06/13 02:31:54;;;;;;;6;4.6;;;;;;;;;;;;;
2021/06/13 02:37:03;;;;;;;6.5;4.7;;;;;;;;;;;;;
2021/06/13 02:39:27;;;;;;;6.5;5.3;;;;;;;;;;;;;
2021/06/13 02:41:53;;;;;;;7.3;4.6;;;;;;;;;;;;;
2021/06/13 02:44:19;;;;;;;6.2;4.8;;;;;;;;;;;;;
2021/06/13 02:46:44;;;;;;;8.8;5.2;;;;;;;;;;;;;
2021/06/13 02:49:09;;;;;;;5.6;4.9;;;;;;;;;;;;;
2021/06/13 02:51:35;;;;;;;5.8;4.9;;;;;;;;;;;;;
2021/06/13 02:54:00;;;;;;;6.1;4.8;;;;;;;;;;;;;
2021/06/13 02:56:25;;;;;;;6.1;5;;;;;;;;;;;;;
2021/06/13 02:58:50;;;;;;;6.6;5;;;;;;;;;;;;;
2021/06/13 03:01:16;;;;;;;7.4;5.3;;;;;;;;;;;;;
2021/06/13 03:03:41;;;;;;;7.5;4.9;;;;;;;;;;;;;
2021/06/13 03:06:06;;;;;;;7.2;5.6;;;;;;;;;;;;;
2021/06/13 03:08:31;;;;;;;8.1;5.6;;;;;;;;;;;;;
2021/06/13 03:10:57;;;;;;;8.1;5.3;;;;;;;;;;;;;
2021/06/13 03:15:47;;;;;;;6.1;4.9;;;;;;;;;;;;;
2021/06/13 03:18:13;;;;;;;7.6;5.2;;;;;;;;;;;;;
2021/06/13 03:20:43;;;;;;;8;5.4;;;;;;;;;;;;;
2021/06/13 03:23:08;;;;;;;7.5;5.2;;;;;;;;;;;;;
2021/06/13 03:25:33;;;;;;;6.8;5.8;;;;;;;;;;;;;
2021/06/13 03:27:59;;;;;;;7.8;5.6;;;;;;;;;;;;;
2021/06/13 03:30:24;;;;;;;9.7;5.5;;;;;;;;;;;;;
2021/06/13 03:32:50;;;;;;;7.4;5.4;;;;;;;;;;;;;
2021/06/13 03:35:15;;;;;;;6.3;5.1;;;;;;;;;;;;;
2021/06/13 03:37:41;;;;;;;7.7;5.4;;;;;;;;;;;;;
2021/06/13 03:40:06;;;;;;;6.6;5.4;;;;;;;;;;;;;
2021/06/13 03:42:32;;;;;;;6.1;5.5;;;;;;;;;;;;;
2021/06/13 03:44:57;;;;;;;6.9;5.6;;;;;;;;;;;;;
2021/06/13 03:47:23;;;;;;;6.4;5.5;;;;;;;;;;;;;
2021/06/13 03:49:48;;;;;;;6.8;5.3;;;;;;;;;;;;;
2021/06/13 03:52:13;;;;;;;8.7;5.8;;;;;;;;;;;;;
2021/06/13 03:54:38;;;;;;;9.7;5.9;;;;;;;;;;;;;
2021/06/13 03:57:03;;;;;;;9.3;6.9;;;;;;;;;;;;;
2021/06/13 03:59:29;;;;;;;9.1;6.2;;;;;;;;;;;;;
2021/06/13 04:02:30;;;;;;;7.5;6.2;;;;;;;17.86;74.63477;944.3915;;;;
2021/06/13 04:04:55;;;;;;;7.6;5.7;;;;;;;17.99;74.4834;944.3709;;;;
2021/06/13 04:07:22;;;;;;;8.3;6.2;;;;;;;18.16;74.45313;944.3752;;;;
2021/06/13 04:09:47;;;;;;;8.2;6.1;;;;;;;18.14;74.55664;944.4092;;;;
2021/06/13 04:12:16;;;;;;;6.6;5.9;;;;;;;18.1;75.07129;944.4451;;;;
2021/06/13 04:14:41;;;;;;;7.2;5.6;;;;;;;18.05;74.20215;944.394;;;;
2021/06/13 04:17:06;;;;;;;7.3;6;;;;;;;18.12;74.28418;944.4224;;;;
2021/06/13 04:19:34;;;;;;;7.3;5.3;;;;;;;18.12;74.05371;944.4537;;;;
2021/06/13 04:24:52;;;;;;;7.7;6;;;;;;;18.1;74.29297;944.4637;;;;
2021/06/13 04:30:23;;;;;;;9.9;6.3;;;;;;;18.03;74.94434;944.5481;;;;
2021/06/13 04:32:50;;;;;;;8.9;5.9;;;;;;;18.05;75.45703;944.6454;;;;
2021/06/13 04:35:14;;;;;;;6.9;5.6;;;;;;;18;75.65723;944.6231;;;;
2021/06/13 04:37:42;;;;;;;6.8;6.1;;;;;;;17.91;74.86523;944.6303;;;;
2021/06/13 04:40:07;;;;;;;7.3;5.8;;;;;;;17.92;75.0752;944.5778;;;;
2021/06/13 04:42:34;;;;;;;8.8;6.4;;;;;;;17.89;75.80078;944.7651;;;;
2021/06/13 04:45:00;;;;;;;7.4;5.8;;;;;;;18.09;75.55957;944.6926;;;;
2021/06/13 04:47:25;;;;;;;9.3;6.5;;;;;;;18.17;75.06055;944.6702;;;;
2021/06/13 04:49:51;;;;;;;10.1;6;;;;;;;18.04;75.91016;944.6916;;;;
2021/06/13 04:52:17;;;;;;;7.7;6.3;;;;;;;18.11;76.8252;944.7022;;;;
2021/06/13 04:54:42;;;;;;;6.9;5.4;;;;;;;18.16;78.00977;944.7662;;;;
2021/06/13 04:57:08;;;;;;;8.1;5.6;;;;;;;18.24;77.59277;944.7787;;;;
2021/06/13 04:59:33;;;;;;;7.9;5.7;;;;;;;18.26;76.98047;944.7817;;;;
2021/06/13 05:01:58;;;;;;;8.7;5.7;;;;;;;18.22;76.24219;944.7925;;;;
2021/06/13 05:04:23;;;;;;;8.4;5.7;;;;;;;18.44;76.18652;944.8253;;;;
2021/06/13 05:06:48;;;;;;;7.1;5.5;;;;;;;18.48;77.79883;944.8024;;;;
2021/06/13 05:09:14;;;;;;;7.5;5.6;;;;;;;18.5;76.92969;944.8456;;;;
2021/06/13 05:11:39;;;;;;;7;5.6;;;;;;;18.16;74.72168;944.8049;;;;
2021/06/13 05:14:05;;;;;;;8.9;6.2;;;;;;;18.08;73.55762;944.787;;;;
2021/06/13 05:16:41;;;;;;;9.6;5.7;;;;;;;18.47;73.4707;944.8074;;;;
2021/06/13 05:19:35;;;;;;;6.9;5.6;;;;;;;18.67;71.79492;944.8146;;;;
2021/06/13 05:22:02;;;;;;;8.4;5.7;;;;;;;18.95;70.75684;944.8293;;;;
2021/06/13 05:24:27;;;;;;;6.7;5.2;;;;;;;19.05;69.89063;944.9122;;;;
2021/06/13 05:26:55;;;;;;;8.9;6.2;;;;;;;19;70.17285;944.8513;;;;
2021/06/13 05:29:20;;;;;;;8.2;6.3;;;;;;;18.94;71.07129;944.8293;;;;
2021/06/13 05:31:48;;;;;;;9.5;6.5;;;;;;;19.1;70.96777;944.8067;;;;
2021/06/13 05:34:13;;;;;;;8.3;6.6;;;;;;;19.26;70.0752;944.8339;;;;
2021/06/13 05:36:42;;;;;;;7.7;5.4;;;;;;;20.49;67.10449;944.9139;;;;
2021/06/13 05:39:07;;;;;;;8.9;5.6;;;;;;;21.66;60.41992;944.9893;;;;
2021/06/13 05:41:33;;;;;;;7;5.3;;;;;;;22.02;59.03809;944.9739;;;;
2021/06/13 05:44:01;;;;;;;6.9;5.5;;;;;;;21.93;58.92188;944.9225;;;;
2021/06/13 05:46:24;;;;;;;8.6;6.1;;;;;;;21.25;60.25781;944.9369;;;;
2021/06/13 05:48:50;;;;;;;8.3;6.3;;;;;;;21.27;60.37695;944.9188;;;;
2021/06/13 05:51:15;;;;;;;8;6.5;;;;;;;20.85;61.95605;944.9894;;;;
2021/06/13 05:53:41;;;;;;;11.6;6.6;;;;;;;20.17;64.70898;945.0683;;;;
2021/06/13 05:56:06;;;;;;;8.9;6.7;;;;;;;19.61;66.00293;945.0486;;;;
2021/06/13 05:58:32;;;;;;;8.6;6.8;;;;;;;19.57;67.41992;945.0759;;;;
2021/06/13 06:00:57;;;;;;;8.2;6.5;;;;;;;19.21;68.26074;945.1049;;;;
2021/06/13 06:03:23;;;;;;;9.8;7.1;;;;;;;18.82;70.77148;945.1517;;;;
2021/06/13 06:05:50;;;;;;;8.6;7.2;;;;;;;19.03;69.62988;945.1669;;;;
2021/06/13 06:08:17;;;;;;;9.8;7.2;;;;;;;19.49;66.77734;945.1663;;;;
2021/06/13 06:10:40;;;;;;;11.9;7.9;;;;;;;19.19;67.82715;945.2294;;;;
2021/06/13 06:13:07;;;;;;;12.5;7.1;;;;;;;19.07;67.5166;945.1906;;;;
2021/06/13 06:15:39;;;;;;;8.8;7;;;;;;;19.38;66.56152;945.3113;;;;
2021/06/13 06:18:09;;;;;;;9.6;7.4;;;;;;;19.27;66.4541;945.332;;;;
2021/06/13 06:20:37;;;;;;;9.5;7.2;;;;;;;19.43;65.95215;945.4127;;;;
2021/06/13 06:23:02;;;;;;;11.4;7.5;;;;;;;19.54;65.98145;945.3428;;;;
2021/06/13 06:25:29;;;;;;;10.3;7.2;;;;;;;19.83;65.80371;945.3449;;;;
2021/06/13 06:27:55;;;;;;;9;7;;;;;;;19.96;64.98242;945.3802;;;;
2021/06/13 06:30:23;;;;;;;10.7;6.5;;;;;;;19.6;66.24609;945.4373;;;;
2021/06/13 06:32:48;;;;;;;10.9;6.8;;;;;;;19.76;66.18945;945.449;;;;
2021/06/13 06:35:17;;;;;;;10.6;7.6;;;;;;;19.45;67.46973;945.4803;;;;
2021/06/13 06:37:42;;;;;;;10.7;7.1;;;;;;;19.52;66.6084;945.5213;;;;
2021/06/13 06:40:07;;;;;;;9.7;7;;;;;;;19.57;65.93945;945.4411;;;;
2021/06/13 06:42:34;;;;;;;14.5;7.2;;;;;;;19.85;65.40918;945.4448;;;;
2021/06/13 06:44:59;;;;;;;14.2;6.9;;;;;;;20.21;64.05078;945.4808;;;;
2021/06/13 06:47:25;;;;;;;9;7.2;;;;;;;20.24;64.28809;945.5204;;;;
2021/06/13 06:49:50;;;;;;;8.5;6.7;;;;;;;20.48;63.5625;945.4934;;;;
2021/06/13 06:52:17;;;;;;;9.7;7.1;;;;;;;20;65.80566;945.5421;;;;
2021/06/13 06:54:42;;;;;;;9.8;6.3;;;;;;;19.88;63.66406;945.5608;;;;
2021/06/13 06:57:09;;;;;;;10.2;7;;;;;;;19.89;63.30469;945.6156;;;;
2021/06/13 06:59:34;;;;;;;9.8;7;;;;;;;19.71;64.44531;945.6494;;;;
2021/06/13 07:02:02;;;;;;;11.6;7.2;;;;;;;19.43;64.41406;945.7141;;;;
2021/06/13 07:04:27;;;;;;;8.6;7.2;;;;;;;18.96;65.40625;945.7324;;;;
2021/06/13 07:06:52;;;;;;;11.4;7.4;;;;;;;18.47;67.54199;945.809;;;;
2021/06/13 07:09:18;;;;;;;12.3;6.6;;;;;;;18.89;65.4873;945.8155;;;;
2021/06/13 07:11:43;;;;;;;10.8;7.1;;;;;;;18.71;66.05371;945.8986;;;;
2021/06/13 07:14:08;;;;;;;10.4;6.8;;;;;;;18.8;64.6377;945.8653;;;;
2021/06/13 07:16:34;;;;;;;10.3;7.2;;;;;;;18.95;64.87988;945.8326;;;;
2021/06/13 07:19:02;;;;;;;9.8;7.1;;;;;;;18.76;65.93359;945.8795;;;;
2021/06/13 07:21:27;;;;;;;10.8;7;;;;;;;19.1;65.07617;945.8337;;;;
2021/06/13 07:23:54;;;;;;;11.2;7.1;;;;;;;19.27;64.97461;945.8805;;;;
2021/06/13 07:26:19;;;;;;;11.2;7.4;;;;;;;19.24;65.5752;945.8777;;;;
2021/06/13 07:28:45;;;;;;;9.7;7.4;;;;;;;19.23;66.51855;945.8688;;;;
2021/06/13 07:31:11;;;;;;;10.8;7.5;;;;;;;19.41;66.20605;945.8884;;;;
2021/06/13 07:33:36;;;;;;;9;7;;;;;;;18.88;65.96289;945.8592;;;;
2021/06/13 07:36:01;;;;;;;11.9;7.6;;;;;;;18.82;66.45508;945.9178;;;;
2021/06/13 07:38:30;;;;;;;10.5;8.3;;;;;;;18.49;70.19434;945.9799;;;;
2021/06/13 07:40:53;;;;;;;13.5;7.7;;;;;;;18.71;69.78809;945.9365;;;;
2021/06/13 07:43:20;;;;;;;11.3;7.7;;;;;;;18.94;69.76758;945.9691;;;;
2021/06/13 07:45:45;;;;;;;11.9;7.8;;;;;;;19.02;66.46191;945.9653;;;;
2021/06/13 07:48:11;;;;;;;12.8;7.3;;;;;;;19.37;68.13477;945.9197;;;;
2021/06/13 07:50:36;;;;;;;11.2;8;;;;;;;19.3;66.99219;945.9472;;;;
2021/06/13 07:53:01;;;;;;;9.4;7.6;;;;;;;19.98;65.54492;945.8674;;;;
2021/06/13 07:55:28;;;;;;;11.1;7.8;;;;;;;20.2;65.7998;945.8303;;;;
2021/06/13 07:57:53;;;;;;;9.1;7.2;;;;;;;20.65;63.0498;945.8047;;;;
2021/06/13 08:00:19;;;;;;;12.7;8;;;;;;;20.43;62.52734;945.7371;;;;
2021/06/13 08:02:44;;;;;;;11.9;6.8;;;;;;;20.81;61.78711;945.7598;;;;
2021/06/13 08:05:15;;;;;;;7.7;6.5;;;;;;;22.16;59.03223;945.7508;;;;
2021/06/13 08:07:37;;;;;;;9.8;7.3;;;;;;;21.44;59.3457;945.7459;;;;
2021/06/13 08:10:02;;;;;;;9;6.7;;;;;;;21.87;58.83008;945.7625;;;;
2021/06/13 08:12:28;;;;;;;10.9;7.6;;;;;;;21.71;57.71973;945.7502;;;;
2021/06/13 08:14:54;;;;;;;11.4;7.5;;;;;;;21.64;60.54492;945.7445;;;;
2021/06/13 08:17:19;;;;;;;8.1;6.9;;;;;;;21.33;61.31055;945.7957;;;;
2021/06/13 08:19:44;;;;;;;9.1;6.8;;;;;;;21.06;63.01563;945.8157;;;;
2021/06/13 08:22:12;;;;;;;13.3;7.4;;;;;;;20.74;63.78711;945.8292;;;;
2021/06/13 08:24:40;;;;;;;10.7;7.6;;;;;;;20.68;64.02344;945.899;;;;
2021/06/13 08:27:06;;;;;;;12.7;7.5;;;;;;;20.97;61.9502;945.8373;;;;
2021/06/13 08:29:31;;;;;;;9.9;6.9;;;;;;;21.6;59.60352;945.8463;;;;
2021/06/13 08:31:56;;;;;;;11.4;7;;;;;;;22.3;58.55859;945.8962;;;;
2021/06/13 08:34:22;;;;;;;10.8;7.3;;;;;;;22.63;57.99219;945.8791;;;;
2021/06/13 08:36:47;;;;;;;11.1;7.8;;;;;;;22.5;57.98633;945.882;;;;
2021/06/13 08:39:13;;;;;;;13.2;7.5;;;;;;;22.32;57.6123;945.916;;;;
2021/06/13 08:41:38;;;;;;;9.7;7.5;;;;;;;22.42;56.87305;945.8521;;;;
2021/06/13 08:44:07;;;;;;;11.2;7.6;;;;;;;22.48;57.77344;945.8159;;;;
2021/06/13 08:46:31;;;;;;;21.5;10.9;;;;;;;23.9;56.08691;945.7472;;;;
2021/06/13 08:48:56;;;;;;;13;8;;;;;;;24.65;51.25195;945.7925;;;;
2021/06/13 08:51:21;;;;;;;10.5;7.5;;;;;;;25.35;51.75781;945.8022;;;;
2021/06/13 08:53:46;;;;;;;12.4;7.6;;;;;;;25.77;48.93359;945.8383;;;;
2021/06/13 08:56:12;;;;;;;8.4;6.3;;;;;;;25.49;48.78516;945.7625;;;;
2021/06/13 08:58:37;;;;;;;12.6;6.8;;;;;;;26.2;47.14746;945.7848;;;;
2021/06/13 09:01:06;;;;;;;7.4;5.9;;;;;;;26.98;46.26953;945.8933;;;;
2021/06/13 09:03:31;;;;;;;7.1;5.5;;;;;;;26.51;48.17383;945.8356;;;;
2021/06/13 09:05:56;;;;;;;9.9;6.1;;;;;;;27.08;44.1582;945.7924;;;;
2021/06/13 09:08:21;;;;;;;8.3;6;;;;;;;26.22;47.65918;945.7619;;;;
2021/06/13 09:10:51;;;;;;;9.4;6.1;;;;;;;25.52;49.55566;945.7492;;;;
2021/06/13 09:13:16;;;;;;;7;6;;;;;;;26.08;46.4834;945.7628;;;;
2021/06/13 09:15:50;;;;;;;10.2;5.8;;;;;;;26.3;47.00391;945.6653;;;;
2021/06/13 09:18:15;;;;;;;7.2;5.8;;;;;;;26.56;45.90527;945.7103;;;;
2021/06/13 09:20:44;;;;;;;11.2;6.1;;;;;;;25.91;49.99023;945.7386;;;;
2021/06/13 09:23:09;;;;;;;9;6.1;;;;;;;25.86;48.79004;945.7521;;;;
2021/06/13 09:25:37;;;;;;;7.4;5.6;;;;;;;26.19;50.60156;945.7434;;;;
2021/06/13 09:28:02;;;;;;;8.8;6.2;;;;;;;27.03;46.77148;945.6875;;;;
2021/06/13 09:30:28;;;;;;;9.6;5.4;;;;;;;27.76;43.86719;945.7532;;;;
2021/06/13 09:32:53;;;;;;;9.4;6.3;;;;;;;26.64;45.40527;945.7332;;;;
2021/06/13 09:35:28;;;;;;;8.9;6;;;;;;;26.48;47.1416;945.7582;;;;
2021/06/13 09:37:49;;;;;;;7.4;5.6;;;;;;;26.79;45.95313;945.7402;;;;
2021/06/13 09:40:16;;;;;;;7;5.5;;;;;;;26.27;47.0957;945.678;;;;
2021/06/13 09:42:41;;;;;;;11.8;6.1;;;;;;;25.43;49.75977;945.6415;;;;
2021/06/13 09:45:08;;;;;;;7.6;6;;;;;;;25.35;50.12793;945.6523;;;;
2021/06/13 09:47:33;;;;;;;8.2;5.5;;;;;;;25.11;50.07617;945.65;;;;
2021/06/13 09:50:00;;;;;;;6.3;5.2;;;;;;;25.17;50.55664;945.6428;;;;
2021/06/13 09:52:25;;;;;;;7.7;5.9;;;;;;;25.57;50.18652;945.6478;;;;
2021/06/13 09:54:50;;;;;;;9.4;6;;;;;;;25.21;49.43945;945.6096;;;;
2021/06/13 09:57:18;;;;;;;6.9;5.8;;;;;;;25.17;50.42676;945.6216;;;;
2021/06/13 09:59:43;;;;;;;6.8;5.7;;;;;;;24.21;52.26172;945.5386;;;;
2021/06/13 10:02:10;;;;;;;7.3;5.3;;;;;;;23.66;53.45508;945.5711;;;;
2021/06/13 10:04:36;;;;;;;8;5.6;;;;;;;23.81;55.24023;945.5641;;;;
2021/06/13 10:07:02;;;;;;;6.2;5.6;;;;;;;23.33;54.36816;945.5447;;;;
2021/06/13 10:09:25;;;;;;;7.1;5.7;;;;;;;23.15;58.47266;945.5673;;;;
2021/06/13 10:11:51;;;;;;;8.9;6.2;;;;;;;23.41;57.17676;945.5555;;;;
2021/06/13 10:14:17;;;;;;;6.5;5.6;;;;;;;22.97;56.91992;945.5281;;;;
2021/06/13 10:16:47;;;;;;;8.5;5.4;;;;;;;23.32;57.0127;945.6141;;;;
2021/06/13 10:19:14;;;;;;;8.1;5.5;;;;;;;22.91;57.50098;945.5379;;;;
2021/06/13 10:21:39;;;;;;;7.2;6.1;;;;;;;22.7;58.28223;945.5217;;;;
2021/06/13 10:24:04;;;;;;;7.5;5.5;;;;;;;22.7;56.80469;945.5419;;;;
2021/06/13 10:26:29;;;;;;;7.3;5.8;;;;;;;22.68;57.68262;945.5255;;;;
2021/06/13 10:28:54;;;;;;;8.2;5.7;;;;;;;22.73;62.10254;945.4997;;;;
2021/06/13 10:31:19;;;;;;;8.4;5.9;;;;;;;23.1;57.92383;945.486;;;;
2021/06/13 10:33:45;;;;;;;7;5.5;;;;;;;22.78;58.51758;945.569;;;;
2021/06/13 10:36:10;;;;;;;7.1;5.5;;;;;;;23.12;57.99707;945.5633;;;;
2021/06/13 10:38:37;;;;;;;6.9;5.1;;;;;;;23.02;56.64551;945.5511;;;;
2021/06/13 10:41:03;;;;;;;10.9;5.9;;;;;;;22.44;59.31738;945.6205;;;;
2021/06/13 10:43:28;;;;;;;8.5;6.7;;;;;;;22.14;60.12109;945.5313;;;;
2021/06/13 10:45:54;;;;;;;8.3;6.4;;;;;;;22.01;61.33398;945.5574;;;;
2021/06/13 10:48:19;;;;;;;7.5;5.9;;;;;;;22.67;61.03711;945.5224;;;;
2021/06/13 10:50:44;;;;;;;9.3;5.7;;;;;;;23.36;57.60449;945.4725;;;;
2021/06/13 10:53:11;;;;;;;11.4;6;;;;;;;22.96;57.90625;945.4952;;;;
2021/06/13 10:55:37;;;;;;;10.7;6.6;;;;;;;22.58;57.99707;945.5075;;;;
2021/06/13 10:58:02;;;;;;;9;5.8;;;;;;;22.56;60.22363;945.5413;;;;
2021/06/13 11:00:28;;;;;;;8.1;6;;;;;;;22.61;59.9502;945.4765;;;;
2021/06/13 11:02:57;;;;;;;6.1;5.4;;;;;;;22.73;58.36914;945.4355;;;;
2021/06/13 11:05:18;;;;;;;14.8;7.4;;;;;;;22.96;57.55469;945.3862;;;;
2021/06/13 11:08:18;;;;;;;7.6;5.9;;;;;;;23.04;55.44922;945.3398;;;;
2021/06/13 11:10:46;;;;;;;10.3;5.4;;;;;;;23.22;55.43652;945.3817;;;;
2021/06/13 11:13:10;;;;;;;5.9;4.9;;;;;;;22.73;54.83594;945.2561;;;;
2021/06/13 11:15:45;;;;;;;8.3;5.4;;;;;;;22.8;55.31445;945.3224;;;;
2021/06/13 11:18:12;;;;;;;8.5;5.5;;;;;;;23.58;56.31641;945.3869;;;;
2021/06/13 11:20:45;;;;;;;7;5;;;;;;;23.79;53.77734;945.4045;;;;
2021/06/13 11:23:02;;;;;;;5.6;5;;;;;;;23.26;55.04297;945.437;;;;
2021/06/13 11:25:32;;;;;;;7;5.2;;;;;;;22.83;55.32813;945.3979;;;;
2021/06/13 11:27:57;;;;;;;9.1;5.7;;;;;;;22.59;56.84863;945.3855;;;;
2021/06/13 11:30:22;;;;;;;8.2;5.4;;;;;;;22.57;56.75098;945.3826;;;;
2021/06/13 11:32:47;;;;;;;7.1;4.7;;;;;;;22.74;55.75195;945.3201;;;;
2021/06/13 11:35:12;;;;;;;5.9;4.6;;;;;;;23.33;56.00391;945.4073;;;;
2021/06/13 11:37:37;;;;;;;7;4.8;;;;;;;23.63;52.49902;945.2997;;;;
2021/06/13 11:40:05;;;;;;;6.5;4.8;;;;;;;23.62;51.28809;945.337;;;;
2021/06/13 11:42:30;;;;;;;7.2;4.7;;;;;;;23.68;52.3291;945.3511;;;;
2021/06/13 11:44:55;;;;;;;5.3;4.3;;;;;;;24.14;52.67676;945.3325;;;;
2021/06/13 11:47:20;;;;;;;7.9;4.7;;;;;;;24.06;51.58496;945.3025;;;;
2021/06/13 11:49:45;;;;;;;5.8;4.3;;;;;;;24.17;49.95996;945.3152;;;;
2021/06/13 11:52:11;;;;;;;9;5.3;;;;;;;24.02;50.37891;945.275;;;;
2021/06/13 11:54:40;;;;;;;5.5;4.5;;;;;;;23.83;50.35742;945.1686;;;;
2021/06/13 11:57:05;;;;;;;8.4;5.5;;;;;;;23.76;50.93848;945.2224;;;;
2021/06/13 11:59:30;;;;;;;5.7;4.1;;;;;;;23.42;51.40527;945.2601;;;;
2021/06/13 12:01:57;;;;;;;9.9;5.4;;;;;;;23.58;53.31738;945.1666;;;;
2021/06/13 12:04:22;;;;;;;8;4.4;;;;;;;23.97;50.25586;945.0934;;;;
2021/06/13 12:06:49;;;;;;;6.9;4.2;;;;;;;24.37;51.39648;945.1353;;;;
2021/06/13 12:09:15;;;;;;;4.2;3.8;;;;;;;24.5;47.48633;945.0269;;;;
2021/06/13 12:11:39;;;;;;;8.9;5.1;;;;;;;24.17;51.4209;945.0726;;;;
2021/06/13 12:14:06;;;;;;;9;4.7;;;;;;;23.74;52.33594;945.032;;;;
2021/06/13 12:16:31;;;;;;;5.8;4.4;;;;;;;24.16;51.05469;945.0664;;;;
2021/06/13 12:18:56;;;;;;;10.2;5.2;;;;;;;23.76;50.77246;944.9573;;;;
2021/06/13 12:21:22;;;;;;;5.6;4.2;;;;;;;23.44;51.48926;945.0737;;;;
2021/06/13 12:23:57;;;;;;;4.9;4.2;;;;;;;23.41;49.875;945.0751;;;;
2021/06/13 12:28:42;;;;;;;6.5;4.4;;;;;;;23.85;51.10156;945.0378;;;;
2021/06/13 12:31:07;;;;;;;6.1;4.5;;;;;;;24.26;50.58301;945.0692;;;;
2021/06/13 12:33:35;;;;;;;6.2;4.1;;;;;;;24.14;49.15527;945.0542;;;;
2021/06/13 12:36:07;;;;;;;6.4;4.1;;;;;;;24.09;48.98535;944.9931;;;;
2021/06/13 12:38:31;;;;;;;4.8;3.9;;;;;;;24.09;47.87988;944.962;;;;
2021/06/13 12:40:57;;;;;;;6.4;3.8;;;;;;;23.98;49.12695;944.9906;;;;
2021/06/13 12:43:22;;;;;;;6.1;3.9;;;;;;;24.04;49.3457;944.9587;;;;
2021/06/13 12:45:50;;;;;;;8.5;4.5;;;;;;;24.09;47.5957;944.9875;;;;
2021/06/13 12:48:15;;;;;;;7.3;4.3;;;;;;;24.11;47.35059;944.9299;;;;
2021/06/13 12:50:41;;;;;;;4.1;3.6;;;;;;;24.01;47.7168;944.8603;;;;
2021/06/13 12:53:06;;;;;;;4.7;3.7;;;;;;;23.81;47.34277;944.8516;;;;
2021/06/13 12:55:32;;;;;;;5.8;4.2;;;;;;;23.73;49.87598;944.8377;;;;
2021/06/13 12:58:00;;;;;;;5.8;4;;;;;;;23.8;48.91895;944.8162;;;;
2021/06/13 13:00:25;;;;;;;5;3.5;;;;;;;23.66;49.63184;944.8401;;;;
2021/06/13 13:02:50;;;;;;;6.8;3.7;;;;;;;23.29;49.06152;944.8049;;;;
2021/06/13 13:05:15;;;;;;;6.9;4.2;;;;;;;23.48;49.23535;944.7612;;;;
2021/06/13 13:07:42;;;;;;;4.8;3.3;;;;;;;23.56;49.08008;944.7587;;;;
2021/06/13 13:10:05;;;;;;;3.6;3.2;;;;;;;23.55;48.82031;944.7614;;;;
2021/06/13 13:12:31;;;;;;;4.1;3.4;;;;;;;23.32;49.6416;944.8315;;;;
2021/06/13 13:14:56;;;;;;;4.7;3.3;;;;;;;22.74;49.77734;944.7856;;;;
2021/06/13 13:18:21;;;;;;;5.7;3.4;;;;;;;22.94;49.81055;944.7395;;;;
2021/06/13 13:20:49;;;;;;;6.2;3.6;;;;;;;23.44;48.46777;944.7908;;;;
2021/06/13 13:23:14;;;;;;;5.9;3.6;;;;;;;23.69;47.3877;944.8091;;;;
2021/06/13 13:25:45;;;;;;;4.4;2.9;;;;;;;23.99;46.24316;944.8787;;;;
2021/06/13 13:28:09;;;;;;;4.8;3.2;;;;;;;24.19;45.6748;944.9012;;;;
2021/06/13 13:30:35;;;;;;;3.5;3.2;;;;;;;24.31;46.65332;944.8702;;;;
2021/06/13 13:33:01;;;;;;;4.9;3.2;;;;;;;24.29;48.15918;944.9221;;;;
2021/06/13 13:35:25;;;;;;;4.4;3.1;;;;;;;24.14;46.01074;944.8914;;;;
2021/06/13 13:37:53;;;;;;;3.5;2.8;;;;;;;23.9;46.375;944.8036;;;;
2021/06/13 13:40:18;;;;;;;3.7;3.2;;;;;;;24.03;45.58789;944.8134;;;;
2021/06/13 13:42:44;;;;;;;5.8;3.3;;;;;;;24.39;45.49609;944.8315;;;;
2021/06/13 13:45:12;;;;;;;4.1;2.9;;;;;;;23.92;46.1416;944.8405;;;;
2021/06/13 13:47:37;;;;;;;4;3;;;;;;;23.69;46.87109;944.8766;;;;
2021/06/13 13:50:02;;;;;;;3.4;3;;;;;;;23.67;45.41016;944.856;;;;
2021/06/13 13:52:29;;;;;;;3.8;2.9;;;;;;;23.4;48.7334;944.8397;;;;
2021/06/13 13:54:54;;;;;;;3.4;3;;;;;;;23.46;46.10547;944.7463;;;;
2021/06/13 13:57:21;;;;;;;4;2.9;;;;;;;23.66;44.53906;944.7659;;;;
2021/06/13 13:59:50;;;;;;;4.2;2.6;;;;;;;23.5;46.0752;944.7492;;;;
2021/06/13 14:02:12;;;;;;;5;2.7;;;;;;;23.38;44.48633;944.7932;;;;
2021/06/13 14:04:37;;;;;;;5.2;2.9;;;;;;;23.09;44.88184;944.7322;;;;
2021/06/13 14:07:03;;;;;;;2.8;2.5;;;;;;;23.02;47.8584;944.7541;;;;
2021/06/13 14:09:30;;;;;;;5.2;2.6;;;;;;;23.23;47.11621;944.7269;;;;
2021/06/13 14:11:55;;;;;;;4.5;2.8;;;;;;;23.49;46.21582;944.6658;;;;
2021/06/13 14:14:21;;;;;;;5.3;2.7;;;;;;;23.88;45.03125;944.7098;;;;
2021/06/13 14:16:49;;;;;;;3.4;2.5;;;;;;;23.96;44.28613;944.6934;;;;
2021/06/13 14:19:18;;;;;;;2.7;2.4;;;;;;;23.85;43.13379;944.6522;;;;
2021/06/13 14:21:42;;;;;;;2.7;2.5;;;;;;;23.73;43.47559;944.6393;;;;
2021/06/13 14:24:09;;;;;;;3.9;2.6;;;;;;;23.31;44.30273;944.6255;;;;
2021/06/13 14:26:34;;;;;;;3;2.5;;;;;;;23.39;43.40723;944.6342;;;;
2021/06/13 14:29:01;;;;;;;3.7;2.4;;;;;;;23.27;43.30078;944.5705;;;;
2021/06/13 14:31:26;;;;;;;2.7;2.3;;;;;;;23.37;45.9209;944.639;;;;
2021/06/13 14:33:54;;;;;;;2.6;2.1;;;;;;;23.57;44.54102;944.5987;;;;
2021/06/13 14:36:17;;;;;;;2.7;2.2;;;;;;;23.36;43.22656;944.6499;;;;
2021/06/13 14:38:42;;;;;;;3.9;2.6;;;;;;;23.09;43.98926;944.6517;;;;
2021/06/13 14:41:07;;;;;;;3;2.3;;;;;;;22.93;45.00586;944.6674;;;;
2021/06/13 14:43:33;;;;;;;3.6;2.5;;;;;;;23.1;44.43652;944.671;;;;
2021/06/13 14:45:58;;;;;;;6.1;2.4;;;;;;;22.84;45.2666;944.5928;;;;
2021/06/13 14:48:25;;;;;;;4.1;2.8;;;;;;;22.75;44.92969;944.5978;;;;
2021/06/13 14:50:50;;;;;;;2.9;2.6;;;;;;;22.27;46.63965;944.649;;;;
2021/06/13 14:53:15;;;;;;;4.3;2.7;;;;;;;22.44;46.04785;944.6699;;;;
2021/06/13 14:55:40;;;;;;;2.6;2.4;;;;;;;22.66;45.70703;944.7205;;;;
2021/06/13 14:58:07;;;;;;;4.1;2.7;;;;;;;22.83;44.74902;944.6931;;;;
2021/06/13 15:00:32;;;;;;;3.8;2.4;;;;;;;22.77;43.99316;944.6127;;;;
2021/06/13 15:02:59;;;;;;;4.1;2.5;;;;;;;22.8;43.83008;944.6469;;;;
2021/06/13 15:05:24;;;;;;;3.2;2.4;;;;;;;22.65;44.27344;944.637;;;;
2021/06/13 15:07:50;;;;;;;2.9;2.4;;;;;;;22.45;45.80273;944.5723;;;;
2021/06/13 15:10:15;;;;;;;4.4;2.7;;;;;;;22.41;45.55176;944.6307;;;;
2021/06/13 15:12:42;;;;;;;4;2.6;;;;;;;22.61;45.19629;944.6233;;;;
2021/06/13 15:15:13;;;;;;;3.2;2.6;;;;;;;22.63;44.61133;944.6646;;;;
2021/06/13 15:17:42;;;;;;;3.3;2.7;;;;;;;22.72;44.52734;944.6571;;;;
2021/06/13 15:20:06;;;;;;;3.3;2.7;;;;;;;22.83;44.47949;944.5768;;;;
2021/06/13 15:22:31;;;;;;;4.1;2.6;;;;;;;22.83;42.9873;944.5826;;;;
2021/06/13 15:24:59;;;;;;;4;2.8;;;;;;;22.93;44.61914;944.5895;;;;
2021/06/13 15:27:24;;;;;;;3.6;2.5;;;;;;;23.02;44.12305;944.5834;;;;
2021/06/13 15:29:49;;;;;;;4;2.6;;;;;;;23.09;43.17676;944.5673;;;;
2021/06/13 15:32:15;;;;;;;3.7;2.4;;;;;;;23.13;44.46191;944.5864;;;;
2021/06/13 15:34:41;;;;;;;2.2;2;;;;;;;23.2;43.55273;944.603;;;;
2021/06/13 15:37:06;;;;;;;3.3;2.4;;;;;;;23.08;43.03613;944.5968;;;;
2021/06/13 15:39:32;;;;;;;4.9;2.7;;;;;;;23.03;42.49121;944.538;;;;
2021/06/13 15:41:57;;;;;;;3.5;2.6;;;;;;;22.96;43.91699;944.5723;;;;
2021/06/13 15:44:26;;;;;;;5;2.7;;;;;;;23.03;42.45508;944.556;;;;